Time;durP1;ratioP1;P1;durP2;ratioP2;P2;SDS_P1;SDS_P2;PMS_P1;PMS_P2;Temp;Humidity;BMP_temperature;BMP_pressure;BME280_temperature;BME280_humidity;BME280_pressure;Samples;Min_cycle;Max_cycle;Signal;HPM_P1;HPM_P2
2020/12/20 00:01:45;;;;;;;;;;;8.80;99.90;;;;;;4093652;28;19975;-76
2020/12/20 00:03:46;;;;;;;;;;;8.90;99.90;;;;;;4094779;28;19915;-76
2020/12/20 00:05:46;;;;;;;;;;;8.90;99.90;;;;;;4093533;28;19922;-75
2020/12/20 00:07:48;;;;;;;;;;;8.90;99.90;;;;;;4095295;28;19914;-76
2020/12/20 00:09:48;;;;;;;;;;;9.00;99.90;;;;;;4095760;28;19918;-75
2020/12/20 00:11:50;;;;;;;;;;;9.10;99.90;;;;;;4095242;28;20002;-76
2020/12/20 00:13:51;;;;;;;;;;;9.20;99.90;;;;;;4096278;28;19922;-76
2020/12/20 00:15:52;;;;;;;;;;;9.20;99.90;;;;;;4096203;28;19918;-76
2020/12/20 00:17:53;;;;;;;;;;;9.20;99.90;;;;;;4089358;28;20009;-75
2020/12/20 00:19:53;;;;;;;;;;;9.20;99.90;;;;;;4087535;28;19919;-76
2020/12/20 00:22:01;;;;;;;;;;;9.20;99.90;;;;;;4095931;28;19969;-76
2020/12/20 00:24:01;;;;;;;;;;;9.10;99.90;;;;;;4092711;28;19973;-76
2020/12/20 00:26:01;;;;;;;;;;;9.10;99.90;;;;;;4094173;28;19930;-77
2020/12/20 00:28:02;;;;;;;;;;;9.10;99.90;;;;;;4108954;28;19914;-76
2020/12/20 00:30:03;;;;;;;;;;;9.00;99.90;;;;;;4092707;28;19941;-76
2020/12/20 00:32:05;;;;;;;;;;;9.00;99.90;;;;;;4093222;28;19958;-76
2020/12/20 00:34:05;;;;;;;;;;;9.00;99.90;;;;;;4092846;28;20051;-76
2020/12/20 00:36:07;;;;;;;;;;;9.00;99.90;;;;;;4093093;28;19915;-77
2020/12/20 00:38:07;;;;;;;;;;;9.00;99.90;;;;;;4126509;28;20009;-76
2020/12/20 00:40:08;;;;;;;;;;;8.90;99.90;;;;;;4098392;28;19914;-77
2020/12/20 00:42:08;;;;;;;;;;;8.80;99.90;;;;;;4098816;28;20369;-77
2020/12/20 00:44:09;;;;;;;;;;;8.70;99.90;;;;;;4099043;28;19915;-77
2020/12/20 00:46:09;;;;;;;;;;;8.80;99.90;;;;;;4096968;28;20155;-77
2020/12/20 00:48:10;;;;;;;;;;;8.70;99.90;;;;;;4098382;28;19914;-77
2020/12/20 00:50:10;;;;;;;;;;;8.70;99.90;;;;;;4097324;28;19919;-77
2020/12/20 00:52:11;;;;;;;;;;;8.80;99.90;;;;;;4098565;28;19927;-77
2020/12/20 00:54:12;;;;;;;;;;;8.80;99.90;;;;;;4098811;28;19914;-77
2020/12/20 00:56:14;;;;;;;;;;;8.80;99.90;;;;;;4097187;28;19965;-77
2020/12/20 00:58:14;;;;;;;;;;;8.80;99.90;;;;;;4098277;28;19945;-77
2020/12/20 01:00:15;;;;;;;;;;;8.70;99.90;;;;;;4097420;28;19918;-77
2020/12/20 01:02:15;;;;;;;;;;;8.70;99.90;;;;;;4112802;28;20261;-76
2020/12/20 01:04:16;;;;;;;;;;;8.70;99.90;;;;;;4097153;28;19922;-76
2020/12/20 01:06:17;;;;;;;;;;;8.60;99.90;;;;;;4096905;28;19940;-77
2020/12/20 01:08:17;;;;;;;;;;;8.60;99.90;;;;;;4096858;28;20391;-77
2020/12/20 01:10:18;;;;;;;;;;;8.50;99.90;;;;;;4097003;28;20005;-76
2020/12/20 01:12:18;;;;;;;;;;;8.50;99.90;;;;;;4096750;28;19968;-76
2020/12/20 01:14:19;;;;;;;;;;;8.40;99.90;;;;;;4096721;28;19922;-76
2020/12/20 01:16:24;;;;;;;;;;;8.40;99.90;;;;;;4096826;28;19915;-76
2020/12/20 01:18:24;;;;;;;;;;;8.40;99.90;;;;;;4095230;28;19918;-76
2020/12/20 01:20:25;;;;;;;;;;;8.40;99.90;;;;;;4097210;28;20342;-76
2020/12/20 01:22:25;;;;;;;;;;;8.40;99.90;;;;;;4094552;28;19914;-76
2020/12/20 01:24:26;;;;;;;;;;;8.40;99.90;;;;;;4095630;28;20009;-76
2020/12/20 01:26:28;;;;;;;;;;;8.40;99.90;;;;;;4127782;28;19971;-76
2020/12/20 01:28:29;;;;;;;;;;;8.50;99.90;;;;;;4096433;28;19921;-76
2020/12/20 01:30:30;;;;;;;;;;;8.40;99.90;;;;;;4098019;28;19953;-76
2020/12/20 01:32:31;;;;;;;;;;;8.40;99.90;;;;;;4096821;28;19918;-76
2020/12/20 01:34:31;;;;;;;;;;;8.40;99.90;;;;;;4097048;28;19921;-76
2020/12/20 01:36:32;;;;;;;;;;;8.40;99.90;;;;;;4097992;28;19914;-76
2020/12/20 01:38:33;;;;;;;;;;;8.40;99.90;;;;;;4122746;28;19914;-76
2020/12/20 01:40:34;;;;;;;;;;;8.50;99.90;;;;;;4098317;28;19914;-76
2020/12/20 01:42:34;;;;;;;;;;;8.50;99.90;;;;;;4098357;28;20257;-76
2020/12/20 01:44:36;;;;;;;;;;;8.50;99.90;;;;;;4097964;28;19915;-76
2020/12/20 01:46:41;;;;;;;;;;;8.40;99.90;;;;;;4096507;28;19921;-75
2020/12/20 01:48:42;;;;;;;;;;;8.40;99.90;;;;;;4096786;28;19969;-76
2020/12/20 01:50:43;;;;;;;;;;;8.40;99.90;;;;;;4097906;28;19920;-76
2020/12/20 01:52:44;;;;;;;;;;;8.40;99.90;;;;;;4097747;28;20025;-76
2020/12/20 01:54:49;;;;;;;;;;;8.40;99.90;;;;;;4128226;28;19948;-76
2020/12/20 01:56:50;;;;;;;;;;;8.40;99.90;;;;;;4097860;28;20006;-76
2020/12/20 01:58:50;;;;;;;;;;;8.40;99.90;;;;;;4097945;28;19915;-76
2020/12/20 02:00:51;;;;;;;;;;;8.30;99.90;;;;;;4097656;28;19919;-76
2020/12/20 02:02:52;;;;;;;;;;;8.30;99.90;;;;;;4098162;28;20322;-76
2020/12/20 02:04:53;;;;;;;;;;;8.20;99.90;;;;;;4128266;28;19914;-76
2020/12/20 02:06:54;;;;;;;;;;;8.20;99.90;;;;;;4096579;28;19915;-76
2020/12/20 02:08:54;;;;;;;;;;;8.20;99.90;;;;;;4097834;28;19941;-76
2020/12/20 02:11:06;;;;;;;;;;;8.20;99.90;;;;;;4097372;28;19942;-76
2020/12/20 02:13:06;;;;;;;;;;;8.20;99.90;;;;;;4097321;28;19950;-76
2020/12/20 02:15:07;;;;;;;;;;;8.10;99.90;;;;;;4097418;28;19941;-77
2020/12/20 02:17:07;;;;;;;;;;;8.10;99.90;;;;;;4097665;28;20061;-76
2020/12/20 02:19:08;;;;;;;;;;;8.10;99.90;;;;;;4097410;28;19961;-77
2020/12/20 02:21:15;;;;;;;;;;;8.10;99.90;;;;;;4096426;28;19960;-77
2020/12/20 02:23:15;;;;;;;;;;;8.20;99.90;;;;;;4096073;28;20067;-76
2020/12/20 02:25:16;;;;;;;;;;;8.20;99.90;;;;;;4111818;28;19914;-76
2020/12/20 02:27:17;;;;;;;;;;;8.20;99.90;;;;;;4097538;28;19916;-76
2020/12/20 02:29:18;;;;;;;;;;;8.20;99.90;;;;;;4097420;28;19914;-76
2020/12/20 02:31:19;;;;;;;;;;;8.20;99.90;;;;;;4111935;28;20281;-75
2020/12/20 02:33:19;;;;;;;;;;;8.20;99.90;;;;;;4097245;28;19929;-76
2020/12/20 02:35:20;;;;;;;;;;;8.20;99.90;;;;;;4097629;28;19926;-76
2020/12/20 02:37:20;;;;;;;;;;;8.20;99.90;;;;;;4110739;28;19970;-77
2020/12/20 02:39:21;;;;;;;;;;;8.20;99.90;;;;;;4096147;28;20281;-76
2020/12/20 02:41:22;;;;;;;;;;;8.30;99.90;;;;;;4097339;28;19926;-77
2020/12/20 02:43:22;;;;;;;;;;;8.40;99.90;;;;;;4111630;28;19918;-76
2020/12/20 02:45:23;;;;;;;;;;;8.30;99.90;;;;;;4096244;28;19937;-76
2020/12/20 02:47:23;;;;;;;;;;;8.40;99.90;;;;;;4111950;28;19914;-76
2020/12/20 02:49:24;;;;;;;;;;;8.40;99.90;;;;;;4095839;28;19915;-77
2020/12/20 02:51:25;;;;;;;;;;;8.50;99.90;;;;;;4096819;28;19957;-76
2020/12/20 02:53:26;;;;;;;;;;;8.50;99.90;;;;;;4097313;28;19932;-77
2020/12/20 02:55:27;;;;;;;;;;;8.50;99.90;;;;;;4095785;28;19961;-76
2020/12/20 02:57:27;;;;;;;;;;;8.60;99.90;;;;;;4095456;28;20342;-76
2020/12/20 02:59:28;;;;;;;;;;;8.60;99.90;;;;;;4095734;28;19915;-76
2020/12/20 03:01:31;;;;;;;;;;;8.70;99.90;;;;;;4096395;28;19914;-76
2020/12/20 03:03:32;;;;;;;;;;;8.70;99.90;;;;;;4095719;28;19914;-77
2020/12/20 03:05:33;;;;;;;;;;;8.70;99.90;;;;;;4111581;28;19920;-76
2020/12/20 03:07:33;;;;;;;;;;;8.70;99.90;;;;;;4096997;28;19922;-76
2020/12/20 03:09:34;;;;;;;;;;;8.80;99.90;;;;;;4097168;28;19914;-76
2020/12/20 03:11:34;;;;;;;;;;;8.80;99.90;;;;;;4111614;28;19922;-77
2020/12/20 03:13:35;;;;;;;;;;;8.80;99.90;;;;;;4097258;28;19922;-76
2020/12/20 03:15:38;;;;;;;;;;;8.80;99.90;;;;;;4111595;28;19915;-76
2020/12/20 03:17:39;;;;;;;;;;;8.70;99.90;;;;;;4096810;28;19915;-77
2020/12/20 03:19:39;;;;;;;;;;;8.70;99.90;;;;;;4094120;28;19983;-76
2020/12/20 03:21:40;;;;;;;;;;;8.70;99.90;;;;;;4129351;28;19920;-77
2020/12/20 03:23:40;;;;;;;;;;;8.70;99.90;;;;;;4110901;28;19921;-76
2020/12/20 03:25:41;;;;;;;;;;;8.70;99.90;;;;;;4128964;28;19969;-77
2020/12/20 03:27:41;;;;;;;;;;;8.70;99.90;;;;;;4140714;28;19925;-76
2020/12/20 03:29:42;;;;;;;;;;;8.70;99.90;;;;;;4118667;28;20214;-76
2020/12/20 03:31:42;;;;;;;;;;;8.70;99.90;;;;;;4096887;28;19962;-76
2020/12/20 03:33:43;;;;;;;;;;;8.70;99.90;;;;;;4096892;28;19973;-76
2020/12/20 03:35:43;;;;;;;;;;;8.70;99.90;;;;;;4096623;28;19945;-76
2020/12/20 03:37:53;;;;;;;;;;;8.70;99.90;;;;;;4111737;28;19919;-76
2020/12/20 03:39:54;;;;;;;;;;;8.80;99.90;;;;;;4096549;28;20049;-76
2020/12/20 03:41:54;;;;;;;;;;;8.80;99.90;;;;;;4096197;28;19923;-76
2020/12/20 03:43:55;;;;;;;;;;;8.80;99.90;;;;;;4111507;28;19918;-76
2020/12/20 03:45:57;;;;;;;;;;;8.80;99.90;;;;;;4096090;28;19922;-76
2020/12/20 03:47:58;;;;;;;;;;;8.80;99.90;;;;;;4096298;28;19918;-76
2020/12/20 03:49:59;;;;;;;;;;;8.80;99.90;;;;;;4094324;28;19915;-76
2020/12/20 03:51:59;;;;;;;;;;;8.80;99.90;;;;;;4094306;28;19922;-76
2020/12/20 03:53:59;;;;;;;;;;;8.80;99.90;;;;;;4093935;28;19984;-76
2020/12/20 03:56:04;;;;;;;;;;;8.80;99.90;;;;;;4094338;28;19915;-76
2020/12/20 03:58:05;;;;;;;;;;;8.80;99.90;;;;;;4095302;28;20401;-76
2020/12/20 04:00:05;;;;;;;;;;;8.70;99.90;;;;;;4095258;28;19914;-76
2020/12/20 04:02:06;;;;;;;;;;;8.70;99.90;;;;;;4094827;28;20289;-76
2020/12/20 04:04:06;;;;;;;;;;;8.70;99.90;;;;;;4095169;28;20366;-76
2020/12/20 04:06:07;;;;;;;;;;;8.60;99.90;;;;;;4093458;28;19914;-76
2020/12/20 04:08:07;;;;;;;;;;;8.70;99.90;;;;;;4094678;28;20478;-76
2020/12/20 04:10:08;;;;;;;;;;;8.70;99.90;;;;;;4094987;28;20388;-76
2020/12/20 04:12:09;;;;;;;;;;;8.70;99.90;;;;;;4094567;28;19918;-76
2020/12/20 04:14:09;;;;;;;;;;;8.70;99.90;;;;;;4095862;28;19915;-76
2020/12/20 04:16:10;;;;;;;;;;;8.60;99.90;;;;;;4097633;28;19922;-76
2020/12/20 04:18:11;;;;;;;;;;;8.60;99.90;;;;;;4097350;28;19921;-76
2020/12/20 04:20:11;;;;;;;;;;;8.60;99.90;;;;;;4107761;28;19918;-76
2020/12/20 04:22:12;;;;;;;;;;;8.60;99.90;;;;;;4094870;28;19919;-77
2020/12/20 04:24:12;;;;;;;;;;;8.60;99.90;;;;;;4096347;28;19998;-76
2020/12/20 04:26:13;;;;;;;;;;;8.60;99.90;;;;;;4097168;28;20109;-77
2020/12/20 04:28:13;;;;;;;;;;;8.60;99.90;;;;;;4097588;28;19915;-76
2020/12/20 04:30:14;;;;;;;;;;;8.60;99.90;;;;;;4111892;28;20444;-77
2020/12/20 04:32:14;;;;;;;;;;;8.50;99.90;;;;;;4095732;28;20180;-76
2020/12/20 04:34:15;;;;;;;;;;;8.50;99.90;;;;;;4097438;28;19918;-76
2020/12/20 04:36:15;;;;;;;;;;;8.50;99.90;;;;;;4097029;28;19915;-76
2020/12/20 04:38:16;;;;;;;;;;;8.50;99.90;;;;;;4110631;28;19914;-76
2020/12/20 04:40:17;;;;;;;;;;;8.50;99.90;;;;;;4098351;28;19926;-76
2020/12/20 04:42:17;;;;;;;;;;;8.40;99.90;;;;;;4098626;28;19956;-76
2020/12/20 04:44:18;;;;;;;;;;;8.50;99.90;;;;;;4113655;28;20009;-76
2020/12/20 04:46:19;;;;;;;;;;;8.40;99.90;;;;;;4097356;28;19914;-76
2020/12/20 04:48:27;;;;;;;;;;;8.40;99.90;;;;;;4096732;28;19965;-76
2020/12/20 04:50:28;;;;;;;;;;;8.40;99.90;;;;;;4113329;28;19914;-76
2020/12/20 04:52:29;;;;;;;;;;;8.40;99.90;;;;;;4098199;28;19934;-75
2020/12/20 04:54:32;;;;;;;;;;;8.40;99.90;;;;;;4112450;28;20524;-75
2020/12/20 04:56:35;;;;;;;;;;;8.30;99.90;;;;;;4097358;28;19915;-75
2020/12/20 04:58:37;;;;;;;;;;;8.20;99.90;;;;;;4097078;28;19919;-76
2020/12/20 05:00:37;;;;;;;;;;;8.20;99.90;;;;;;4096823;28;19918;-76
2020/12/20 05:02:38;;;;;;;;;;;8.30;99.90;;;;;;4113262;28;19940;-76
2020/12/20 05:04:39;;;;;;;;;;;8.30;99.90;;;;;;4097199;28;19925;-76
2020/12/20 05:06:39;;;;;;;;;;;8.30;99.90;;;;;;4111782;28;20400;-76
2020/12/20 05:08:39;;;;;;;;;;;8.40;99.90;;;;;;4095843;28;19984;-76
2020/12/20 05:10:40;;;;;;;;;;;8.40;99.90;;;;;;4111638;28;20281;-76
2020/12/20 05:12:41;;;;;;;;;;;8.40;99.90;;;;;;4096595;28;19925;-76
2020/12/20 05:14:41;;;;;;;;;;;8.40;99.90;;;;;;4096980;28;19914;-76
2020/12/20 05:16:42;;;;;;;;;;;8.30;99.90;;;;;;4096874;28;19914;-76
2020/12/20 05:18:47;;;;;;;;;;;8.30;99.90;;;;;;4097066;28;19914;-76
2020/12/20 05:20:48;;;;;;;;;;;8.30;99.90;;;;;;4094871;28;19919;-76
2020/12/20 05:22:51;;;;;;;;;;;8.20;99.90;;;;;;4148971;28;19913;-76
2020/12/20 05:24:51;;;;;;;;;;;8.20;99.90;;;;;;4175843;28;20315;-76
2020/12/20 05:26:52;;;;;;;;;;;8.20;99.90;;;;;;4111454;28;19969;-76
2020/12/20 05:28:53;;;;;;;;;;;8.30;99.90;;;;;;4113753;28;20287;-76
2020/12/20 05:30:53;;;;;;;;;;;8.20;99.90;;;;;;4096660;28;19914;-77
2020/12/20 05:32:54;;;;;;;;;;;8.30;99.90;;;;;;4095275;28;20017;-76
2020/12/20 05:35:02;;;;;;;;;;;8.30;99.90;;;;;;4096452;28;19918;-76
2020/12/20 05:37:09;;;;;;;;;;;8.30;99.90;;;;;;4104975;28;20332;-76
2020/12/20 05:39:16;;;;;;;;;;;8.30;99.90;;;;;;4098210;28;19915;-76
2020/12/20 05:41:37;;;;;;;;;;;8.30;99.90;;;;;;4112204;28;20387;-76
2020/12/20 05:43:38;;;;;;;;;;;8.30;99.90;;;;;;4112705;28;19922;-76
2020/12/20 05:45:38;;;;;;;;;;;8.30;99.90;;;;;;4096004;28;19921;-76
2020/12/20 05:47:39;;;;;;;;;;;8.20;99.90;;;;;;4096382;28;20365;-76
2020/12/20 05:49:39;;;;;;;;;;;8.30;99.90;;;;;;4096621;28;19914;-76
2020/12/20 05:51:59;;;;;;;;;;;8.20;99.90;;;;;;4097059;28;19938;-76
2020/12/20 05:54:11;;;;;;;;;;;8.20;99.90;;;;;;4097215;28;19980;-76
2020/12/20 05:56:16;;;;;;;;;;;8.30;99.90;;;;;;4120390;28;20317;-76
2020/12/20 05:58:17;;;;;;;;;;;8.30;99.90;;;;;;4120670;28;19915;-76
2020/12/20 06:00:17;;;;;;;;;;;8.30;99.90;;;;;;4120551;28;19922;-76
2020/12/20 06:02:18;;;;;;;;;;;8.30;99.90;;;;;;4125465;28;19961;-76
2020/12/20 06:04:19;;;;;;;;;;;8.30;99.90;;;;;;4131453;28;19913;-75
2020/12/20 06:06:21;;;;;;;;;;;8.30;99.90;;;;;;4123710;28;19913;-76
2020/12/20 06:08:22;;;;;;;;;;;8.30;99.90;;;;;;4120347;28;19915;-76
2020/12/20 06:10:25;;;;;;;;;;;8.20;99.90;;;;;;4120008;28;19922;-76
2020/12/20 06:12:29;;;;;;;;;;;8.10;99.90;;;;;;4122311;28;19926;-76
2020/12/20 06:14:29;;;;;;;;;;;8.10;99.90;;;;;;4132799;28;20011;-76
2020/12/20 06:16:31;;;;;;;;;;;8.00;99.90;;;;;;4112534;28;20037;-76
2020/12/20 06:18:34;;;;;;;;;;;8.00;99.90;;;;;;4097209;28;19950;-76
2020/12/20 06:20:52;;;;;;;;;;;8.00;99.90;;;;;;4097096;28;19922;-76
2020/12/20 06:22:53;;;;;;;;;;;8.00;99.90;;;;;;4097262;28;19915;-76
2020/12/20 06:24:55;;;;;;;;;;;8.00;99.90;;;;;;4097157;28;19914;-76
2020/12/20 06:26:58;;;;;;;;;;;8.00;99.90;;;;;;4098651;28;19918;-76
2020/12/20 06:29:02;;;;;;;;;;;8.00;99.90;;;;;;4097693;28;19918;-76
2020/12/20 06:31:03;;;;;;;;;;;8.00;99.90;;;;;;4086069;28;20369;-76
2020/12/20 06:33:04;;;;;;;;;;;8.10;99.90;;;;;;4091297;28;19918;-76
2020/12/20 06:35:24;;;;;;;;;;;8.10;99.90;;;;;;4093607;28;19999;-76
2020/12/20 06:37:24;;;;;;;;;;;8.10;99.90;;;;;;4102158;28;20040;-76
2020/12/20 06:39:37;;;;;;;;;;;8.10;99.90;;;;;;4096693;28;20385;-76
2020/12/20 06:41:40;;;;;;;;;;;8.10;99.90;;;;;;4096725;28;19915;-76
2020/12/20 06:43:43;;;;;;;;;;;8.10;99.90;;;;;;4096706;28;19939;-76
2020/12/20 06:45:45;;;;;;;;;;;8.20;99.90;;;;;;4111752;28;20371;-76
2020/12/20 06:47:49;;;;;;;;;;;8.20;99.90;;;;;;4124210;28;20283;-76
2020/12/20 06:49:51;;;;;;;;;;;8.20;99.90;;;;;;4123591;28;19915;-76
2020/12/20 06:52:12;;;;;;;;;;;8.20;99.90;;;;;;4126489;28;20019;-77
2020/12/20 06:54:12;;;;;;;;;;;8.20;99.90;;;;;;4137021;28;20040;-76
2020/12/20 06:56:13;;;;;;;;;;;8.30;99.90;;;;;;4124901;28;20386;-76
2020/12/20 06:58:17;;;;;;;;;;;8.30;99.90;;;;;;4125244;28;19918;-76
2020/12/20 07:00:36;;;;;;;;;;;8.30;99.90;;;;;;4125102;28;19915;-76
2020/12/20 07:02:44;;;;;;;;;;;8.30;99.90;;;;;;4120085;28;19983;-76
2020/12/20 07:04:45;;;;;;;;;;;8.20;99.90;;;;;;4118035;28;20352;-76
2020/12/20 07:07:04;;;;;;;;;;;8.20;99.90;;;;;;4125720;28;19921;-76
2020/12/20 07:09:07;;;;;;;;;;;8.10;99.90;;;;;;4136416;28;19918;-76
2020/12/20 07:11:20;;;;;;;;;;;8.10;99.90;;;;;;4138149;28;19913;-76
2020/12/20 07:13:36;;;;;;;;;;;8.10;99.90;;;;;;4118633;28;20242;-76
2020/12/20 07:15:46;;;;;;;;;;;8.10;99.90;;;;;;4125455;28;20384;-76
2020/12/20 07:17:47;;;;;;;;;;;8.10;99.90;;;;;;4115754;28;19920;-76
2020/12/20 07:20:07;;;;;;;;;;;8.20;99.90;;;;;;4134741;28;19913;-76
2020/12/20 07:22:10;;;;;;;;;;;8.10;99.90;;;;;;4123876;28;20019;-76
2020/12/20 07:24:18;;;;;;;;;;;8.10;99.90;;;;;;4127159;28;20312;-76
2020/12/20 07:26:19;;;;;;;;;;;8.10;99.90;;;;;;4138251;28;19966;-76
2020/12/20 07:28:20;;;;;;;;;;;8.10;99.90;;;;;;4132211;28;20322;-76
2020/12/20 07:30:20;;;;;;;;;;;8.10;99.90;;;;;;4111331;28;19925;-76
2020/12/20 07:32:21;;;;;;;;;;;8.10;99.90;;;;;;4095959;28;20014;-76
2020/12/20 07:34:23;;;;;;;;;;;8.10;99.90;;;;;;4094536;28;19923;-76
2020/12/20 07:36:24;;;;;;;;;;;8.10;99.90;;;;;;4109464;28;20299;-76
2020/12/20 07:38:24;;;;;;;;;;;8.10;99.90;;;;;;4110767;28;19921;-76
2020/12/20 07:40:25;;;;;;;;;;;8.00;99.90;;;;;;4095099;28;19922;-76
2020/12/20 07:42:26;;;;;;;;;;;8.00;99.90;;;;;;4096374;28;19915;-76
2020/12/20 07:44:26;;;;;;;;;;;8.00;99.90;;;;;;4111166;28;20007;-76
2020/12/20 07:46:27;;;;;;;;;;;8.00;99.90;;;;;;4096481;28;19915;-76
2020/12/20 07:48:28;;;;;;;;;;;8.10;99.90;;;;;;4095597;28;20384;-75
2020/12/20 07:50:28;;;;;;;;;;;8.20;99.90;;;;;;4096411;28;19919;-76
2020/12/20 07:52:28;;;;;;;;;;;8.20;99.90;;;;;;4110072;28;19958;-76
2020/12/20 07:54:29;;;;;;;;;;;8.20;99.90;;;;;;4096225;28;19915;-76
2020/12/20 07:56:33;;;;;;;;;;;8.20;99.90;;;;;;4098428;28;19926;-76
2020/12/20 07:58:34;;;;;;;;;;;8.20;99.90;;;;;;4164376;28;20063;-76
2020/12/20 08:00:35;;;;;;;;;;;8.20;99.90;;;;;;4165287;28;20310;-76
2020/12/20 08:02:37;;;;;;;;;;;8.20;99.90;;;;;;4165354;28;20431;-75
2020/12/20 08:04:37;;;;;;;;;;;8.20;99.90;;;;;;4155272;28;19966;-76
2020/12/20 08:06:39;;;;;;;;;;;8.10;99.90;;;;;;4109425;28;20277;-76
2020/12/20 08:08:40;;;;;;;;;;;8.10;99.90;;;;;;4117464;28;20054;-76
2020/12/20 08:10:41;;;;;;;;;;;8.20;99.90;;;;;;4158344;28;20012;-76
2020/12/20 08:12:41;;;;;;;;;;;8.20;99.90;;;;;;4094196;28;19941;-76
2020/12/20 08:14:42;;;;;;;;;;;8.20;99.90;;;;;;4107778;28;19914;-76
2020/12/20 08:16:44;;;;;;;;;;;8.20;99.90;;;;;;4095763;28;19918;-76
2020/12/20 08:18:51;;;;;;;;;;;8.20;99.90;;;;;;4108731;28;19945;-76
2020/12/20 08:20:52;;;;;;;;;;;8.10;99.90;;;;;;4108341;28;19953;-76
2020/12/20 08:22:53;;;;;;;;;;;8.20;99.90;;;;;;4092713;28;20439;-76
2020/12/20 08:24:53;;;;;;;;;;;8.20;99.90;;;;;;4095305;28;19919;-76
2020/12/20 08:26:54;;;;;;;;;;;8.20;99.90;;;;;;4094365;28;20005;-76
2020/12/20 08:28:55;;;;;;;;;;;8.30;99.90;;;;;;4094861;28;19968;-76
2020/12/20 08:31:01;;;;;;;;;;;8.30;99.90;;;;;;4092163;28;20344;-76
2020/12/20 08:33:02;;;;;;;;;;;8.30;99.90;;;;;;4120427;28;19925;-76
2020/12/20 08:35:14;;;;;;;;;;;8.40;99.90;;;;;;4095210;28;20361;-76
2020/12/20 08:37:16;;;;;;;;;;;8.40;99.90;;;;;;4128528;28;20338;-76
2020/12/20 08:39:21;;;;;;;;;;;8.40;99.90;;;;;;4093450;28;20037;-76
2020/12/20 08:41:26;;;;;;;;;;;8.40;99.90;;;;;;4120006;28;19923;-76
2020/12/20 08:43:26;;;;;;;;;;;8.40;99.90;;;;;;4110801;28;20339;-76
2020/12/20 08:45:28;;;;;;;;;;;8.50;99.90;;;;;;4110404;28;19912;-76
2020/12/20 08:47:34;;;;;;;;;;;8.50;99.90;;;;;;4130747;28;19920;-76
2020/12/20 08:49:36;;;;;;;;;;;8.60;99.90;;;;;;4122494;28;20391;-76
2020/12/20 08:51:36;;;;;;;;;;;8.60;99.90;;;;;;4122229;28;19915;-76
2020/12/20 08:53:37;;;;;;;;;;;8.60;99.90;;;;;;4110144;28;19926;-76
2020/12/20 08:55:37;;;;;;;;;;;8.60;99.90;;;;;;4109375;28;19919;-76
2020/12/20 08:57:38;;;;;;;;;;;8.60;99.90;;;;;;4134115;28;20363;-76
2020/12/20 08:59:44;;;;;;;;;;;8.60;99.90;;;;;;4122922;28;19927;-76
2020/12/20 09:01:45;;;;;;;;;;;8.70;99.90;;;;;;4124067;28;19937;-76
2020/12/20 09:03:45;;;;;;;;;;;8.70;99.90;;;;;;4125073;28;19918;-76
2020/12/20 09:05:46;;;;;;;;;;;8.70;99.90;;;;;;4126376;28;19917;-76
2020/12/20 09:07:49;;;;;;;;;;;8.80;99.90;;;;;;4096802;28;20009;-76
2020/12/20 09:09:59;;;;;;;;;;;8.80;99.90;;;;;;4096780;28;19915;-76
2020/12/20 09:12:32;;;;;;;;;;;8.80;99.90;;;;;;4096792;28;19921;-76
2020/12/20 09:14:33;;;;;;;;;;;8.80;99.90;;;;;;4140804;28;19925;-76
2020/12/20 09:16:42;;;;;;;;;;;8.80;99.90;;;;;;4127073;28;20346;-76
2020/12/20 09:18:43;;;;;;;;;;;8.80;99.90;;;;;;4096698;28;19926;-76
2020/12/20 09:20:45;;;;;;;;;;;8.80;99.90;;;;;;4102832;28;20360;-76
2020/12/20 09:22:47;;;;;;;;;;;8.80;99.90;;;;;;4102846;28;19919;-76
2020/12/20 09:24:48;;;;;;;;;;;8.80;99.90;;;;;;4108524;28;19922;-76
2020/12/20 09:26:58;;;;;;;;;;;8.80;99.90;;;;;;4102279;28;19912;-76
2020/12/20 09:29:05;;;;;;;;;;;8.80;99.90;;;;;;4117035;28;19914;-76
2020/12/20 09:31:12;;;;;;;;;;;8.80;99.90;;;;;;4098071;28;19950;-76
2020/12/20 09:33:19;;;;;;;;;;;8.80;99.90;;;;;;4095326;28;19926;-76
2020/12/20 09:35:19;;;;;;;;;;;8.80;99.90;;;;;;4096918;28;19922;-76
2020/12/20 09:37:20;;;;;;;;;;;8.90;99.90;;;;;;4126097;28;19932;-75
2020/12/20 09:39:20;;;;;;;;;;;8.90;99.90;;;;;;4097438;28;19923;-76
2020/12/20 09:41:22;;;;;;;;;;;8.90;99.90;;;;;;4097420;28;19923;-76
2020/12/20 09:43:23;;;;;;;;;;;8.90;99.90;;;;;;4097584;28;19914;-76
2020/12/20 09:45:23;;;;;;;;;;;8.90;99.90;;;;;;4096184;28;19921;-76
2020/12/20 09:47:24;;;;;;;;;;;9.00;99.90;;;;;;4111338;28;19965;-76
2020/12/20 09:49:24;;;;;;;;;;;9.00;99.90;;;;;;4083270;28;20022;-76
2020/12/20 09:51:25;;;;;;;;;;;9.00;99.90;;;;;;4096534;28;19921;-76
2020/12/20 09:53:26;;;;;;;;;;;9.00;99.90;;;;;;4097115;28;19937;-76
2020/12/20 09:55:29;;;;;;;;;;;9.10;99.90;;;;;;4097620;28;20007;-76
2020/12/20 09:57:30;;;;;;;;;;;9.10;99.90;;;;;;4112336;28;20334;-76
2020/12/20 09:59:30;;;;;;;;;;;9.20;99.90;;;;;;4122376;28;19917;-76
2020/12/20 10:01:32;;;;;;;;;;;9.30;99.90;;;;;;4117831;28;19937;-76
2020/12/20 10:03:33;;;;;;;;;;;9.30;99.90;;;;;;4112686;28;19914;-76
2020/12/20 10:05:34;;;;;;;;;;;9.30;99.90;;;;;;4118001;28;19915;-76
2020/12/20 10:07:34;;;;;;;;;;;9.40;99.90;;;;;;4117246;28;19914;-76
2020/12/20 10:09:35;;;;;;;;;;;9.40;99.90;;;;;;4097192;28;20084;-76
2020/12/20 10:11:35;;;;;;;;;;;9.40;99.90;;;;;;4173199;28;19915;-76
2020/12/20 10:13:36;;;;;;;;;;;9.40;99.90;;;;;;4175101;28;19923;-76
2020/12/20 10:15:37;;;;;;;;;;;9.40;99.90;;;;;;4175396;28;19920;-76
2020/12/20 10:17:37;;;;;;;;;;;9.30;99.90;;;;;;4174322;28;20354;-76
2020/12/20 10:19:38;;;;;;;;;;;9.30;99.90;;;;;;4178910;28;20348;-76
2020/12/20 10:21:38;;;;;;;;;;;9.20;99.90;;;;;;4164245;28;19967;-76
2020/12/20 10:23:39;;;;;;;;;;;9.20;99.90;;;;;;4109462;28;19925;-76
2020/12/20 10:25:42;;;;;;;;;;;9.20;99.90;;;;;;4087922;28;19915;-76
2020/12/20 10:27:43;;;;;;;;;;;9.10;99.90;;;;;;4125903;28;19966;-76
2020/12/20 10:29:43;;;;;;;;;;;9.00;99.90;;;;;;4106616;28;20297;-76
2020/12/20 10:31:46;;;;;;;;;;;9.10;99.90;;;;;;4097048;28;19973;-76
2020/12/20 10:33:46;;;;;;;;;;;9.10;99.90;;;;;;4095279;28;19985;-76
2020/12/20 10:35:47;;;;;;;;;;;9.20;99.90;;;;;;4098991;28;19920;-76
2020/12/20 10:37:48;;;;;;;;;;;9.30;99.90;;;;;;4094296;28;19926;-76
2020/12/20 10:39:49;;;;;;;;;;;9.40;99.90;;;;;;4097198;28;19919;-76
2020/12/20 10:41:52;;;;;;;;;;;9.40;99.90;;;;;;4095789;28;19914;-76
2020/12/20 10:43:53;;;;;;;;;;;9.60;99.90;;;;;;4109749;28;19915;-76
2020/12/20 10:45:53;;;;;;;;;;;9.70;99.90;;;;;;4110398;28;19913;-76
2020/12/20 10:47:55;;;;;;;;;;;9.80;99.90;;;;;;4105554;28;19918;-76
2020/12/20 10:49:56;;;;;;;;;;;9.90;99.90;;;;;;4104864;28;19950;-76
2020/12/20 10:51:56;;;;;;;;;;;10.00;99.90;;;;;;4106026;28;20004;-76
2020/12/20 10:53:56;;;;;;;;;;;10.10;99.90;;;;;;4106036;28;20340;-76
2020/12/20 10:55:57;;;;;;;;;;;10.60;99.90;;;;;;4115004;28;19914;-76
2020/12/20 10:57:58;;;;;;;;;;;11.10;99.90;;;;;;4106217;28;19921;-75
2020/12/20 10:59:58;;;;;;;;;;;11.20;99.90;;;;;;4104551;28;19915;-76
2020/12/20 11:01:59;;;;;;;;;;;11.20;99.90;;;;;;4102993;28;19929;-76
2020/12/20 11:03:59;;;;;;;;;;;11.20;99.90;;;;;;4134401;28;20011;-76
2020/12/20 11:06:00;;;;;;;;;;;11.00;99.90;;;;;;4094385;28;19918;-76
2020/12/20 11:08:01;;;;;;;;;;;10.80;99.90;;;;;;4118198;28;19966;-76
2020/12/20 11:10:02;;;;;;;;;;;10.80;99.90;;;;;;4109291;28;19937;-77
2020/12/20 11:12:03;;;;;;;;;;;10.70;99.90;;;;;;4118805;28;19915;-76
2020/12/20 11:14:04;;;;;;;;;;;10.80;99.90;;;;;;4119489;28;19918;-76
2020/12/20 11:16:04;;;;;;;;;;;10.80;99.90;;;;;;4094088;28;19915;-76
2020/12/20 11:18:05;;;;;;;;;;;10.90;99.90;;;;;;4108650;28;20004;-76
2020/12/20 11:20:06;;;;;;;;;;;11.30;99.90;;;;;;4094595;28;19922;-76
2020/12/20 11:22:06;;;;;;;;;;;11.50;99.90;;;;;;4107030;28;20290;-76
2020/12/20 11:24:07;;;;;;;;;;;11.50;99.90;;;;;;4093204;28;19926;-76
2020/12/20 11:26:27;;;;;;;;;;;11.40;99.90;;;;;;4094576;28;20316;-76
2020/12/20 11:28:28;;;;;;;;;;;11.30;99.90;;;;;;4129810;28;20657;-75
2020/12/20 11:30:28;;;;;;;;;;;11.30;99.90;;;;;;4109871;28;19922;-75
2020/12/20 11:32:32;;;;;;;;;;;11.10;99.90;;;;;;4094167;28;19918;-76
2020/12/20 11:34:33;;;;;;;;;;;11.00;99.90;;;;;;4095320;28;20292;-76
2020/12/20 11:36:34;;;;;;;;;;;10.90;99.90;;;;;;4094790;28;19915;-76
2020/12/20 11:38:35;;;;;;;;;;;10.80;99.90;;;;;;4103872;28;20381;-76
2020/12/20 11:40:35;;;;;;;;;;;10.80;99.90;;;;;;4147685;28;19926;-76
2020/12/20 11:42:36;;;;;;;;;;;10.70;99.90;;;;;;4094232;28;20009;-75
2020/12/20 11:44:36;;;;;;;;;;;10.60;99.90;;;;;;4093339;28;20009;-76
2020/12/20 11:46:37;;;;;;;;;;;10.50;99.90;;;;;;4092409;28;20388;-76
2020/12/20 11:48:37;;;;;;;;;;;10.50;99.90;;;;;;4092702;28;20017;-76
2020/12/20 11:50:38;;;;;;;;;;;10.50;99.90;;;;;;4093315;28;19918;-76
2020/12/20 11:52:39;;;;;;;;;;;10.50;99.90;;;;;;4094705;28;19927;-75
2020/12/20 11:54:40;;;;;;;;;;;10.40;99.90;;;;;;4107659;28;20377;-76
2020/12/20 11:56:42;;;;;;;;;;;10.50;99.90;;;;;;4095182;28;19930;-75
2020/12/20 11:58:43;;;;;;;;;;;10.40;99.90;;;;;;4114435;28;19965;-75
2020/12/20 12:00:44;;;;;;;;;;;10.30;99.90;;;;;;4107030;28;19952;-75